Time;durP1;ratioP1;P1;durP2;ratioP2;P2;SDS_P1;SDS_P2;PMS_P1;PMS_P2;Temp;Humidity;BMP_temperature;BMP_pressure;BME280_temperature;BME280_humidity;BME280_pressure;Samples;Min_cycle;Max_cycle;Signal;HPM_P1;HPM_P2
2023/05/01 00:00:57;;;;;;;3.45;3.10;;;18.50;54.90;;;;;;4955844;28;20202;-68
2023/05/01 00:03:23;;;;;;;3.35;3.05;;;18.60;54.80;;;;;;4972598;28;20316;-69
2023/05/01 00:05:49;;;;;;;3.78;2.92;;;18.50;55.00;;;;;;4955717;28;20277;-68
2023/05/01 00:08:14;;;;;;;3.75;3.40;;;18.50;54.90;;;;;;4955855;28;20201;-68
2023/05/01 00:10:40;;;;;;;3.88;3.47;;;18.50;54.90;;;;;;4955623;28;20229;-68
2023/05/01 00:13:10;;;;;;;3.58;3.17;;;18.50;54.80;;;;;;4955648;28;20204;-68
2023/05/01 00:15:36;;;;;;;3.28;2.85;;;18.50;54.80;;;;;;4955769;28;20189;-69
2023/05/01 00:18:02;;;;;;;3.40;3.10;;;18.60;54.90;;;;;;4955516;28;20198;-68
2023/05/01 00:20:28;;;;;;;3.65;3.17;;;18.50;54.80;;;;;;4955422;28;20201;-68
2023/05/01 00:22:54;;;;;;;3.30;2.97;;;18.50;54.80;;;;;;4955489;28;20221;-68
2023/05/01 00:25:20;;;;;;;3.08;2.78;;;18.50;54.90;;;;;;4973123;28;20248;-69
2023/05/01 00:27:47;;;;;;;3.30;2.97;;;18.50;54.80;;;;;;4959005;28;20218;-68
2023/05/01 00:30:13;;;;;;;3.63;3.30;;;18.50;54.80;;;;;;4959366;28;20186;-68
2023/05/01 00:32:38;;;;;;;3.63;3.20;;;18.50;54.80;;;;;;4970422;28;20200;-68
2023/05/01 00:35:04;;;;;;;3.58;2.90;;;18.50;54.80;;;;;;4963183;28;20210;-69
2023/05/01 00:37:31;;;;;;;3.72;2.67;;;18.50;54.80;;;;;;4958661;28;20340;-68
2023/05/01 00:39:56;;;;;;;3.28;2.97;;;18.50;54.80;;;;;;4976140;28;20198;-68
2023/05/01 00:42:22;;;;;;;3.13;2.83;;;18.50;54.90;;;;;;4976165;28;20240;-68
2023/05/01 00:44:48;;;;;;;3.50;3.20;;;18.50;54.80;;;;;;4958578;28;20237;-68
2023/05/01 00:47:14;;;;;;;4.63;3.10;;;18.50;54.80;;;;;;4958749;28;20197;-68
2023/05/01 00:49:45;;;;;;;4.40;3.28;;;18.50;54.80;;;;;;4958916;28;20205;-68
2023/05/01 00:52:11;;;;;;;3.15;2.85;;;18.50;54.80;;;;;;4958560;28;20205;-68
2023/05/01 00:54:39;;;;;;;3.40;3.10;;;18.50;54.80;;;;;;4958201;28;20213;-68
2023/05/01 00:57:07;;;;;;;4.68;3.45;;;18.50;54.80;;;;;;4958611;28;20201;-68
2023/05/01 00:59:33;;;;;;;3.50;3.20;;;18.50;54.80;;;;;;4961093;28;20282;-68
2023/05/01 01:01:59;;;;;;;3.20;2.90;;;18.50;54.80;;;;;;4971603;28;20232;-68
2023/05/01 01:04:27;;;;;;;3.58;2.80;;;18.50;54.80;;;;;;4946919;28;20894;-68
2023/05/01 01:07:20;;;;;;;3.30;2.90;;;18.50;54.80;;;;;;4958339;28;20581;-68
2023/05/01 01:10:26;;;;;;;3.20;2.90;;;18.50;54.80;;;;;;4958429;28;20193;-68
2023/05/01 01:13:10;;;;;;;3.42;3.08;;;18.50;54.80;;;;;;4921978;28;20197;-68
2023/05/01 01:15:58;;;;;;;3.28;2.97;;;18.40;54.70;;;;;;4949968;28;20189;-68
2023/05/01 01:18:37;;;;;;;3.67;3.08;;;18.50;54.80;;;;;;4975384;28;20247;-68
2023/05/01 01:21:16;;;;;;;2.90;2.70;;;18.50;54.80;;;;;;4958053;28;20205;-68
2023/05/01 01:24:18;;;;;;;3.30;3.00;;;18.50;54.80;;;;;;4990272;28;20269;-68
2023/05/01 01:28:17;;;;;;;3.13;2.47;;;18.50;54.80;;;;;;4945958;28;20229;-68
2023/05/01 01:31:32;;;;;;;3.75;3.40;;;18.50;54.80;;;;;;4846604;29;20205;-68
2023/05/01 01:34:06;;;;;;;3.40;3.10;;;18.50;54.80;;;;;;4883837;29;20215;-68
2023/05/01 01:37:11;;;;;;;3.03;2.83;;;18.50;54.80;;;;;;4935771;28;20313;-68
2023/05/01 01:40:07;;;;;;;3.25;2.95;;;18.50;54.80;;;;;;4973784;28;20186;-68
2023/05/01 01:42:45;;;;;;;3.35;3.05;;;18.40;54.70;;;;;;4941872;28;20220;-68
2023/05/01 01:45:39;;;;;;;3.05;2.83;;;18.50;54.80;;;;;;4989954;28;20683;-69
2023/05/01 01:48:13;;;;;;;3.28;2.97;;;18.50;54.80;;;;;;4970461;28;20187;-68
2023/05/01 01:50:42;;;;;;;3.42;3.13;;;18.50;54.80;;;;;;4957390;28;20177;-69
2023/05/01 01:53:11;;;;;;;2.70;2.50;;;18.40;54.70;;;;;;4957557;28;20193;-68
2023/05/01 01:55:42;;;;;;;3.20;2.90;;;18.40;54.70;;;;;;4974464;28;20202;-69
2023/05/01 01:58:09;;;;;;;4.72;3.17;;;18.40;54.70;;;;;;4941401;28;20272;-68
2023/05/01 02:00:36;;;;;;;3.30;3.00;;;18.50;54.80;;;;;;4959484;28;20291;-69
2023/05/01 02:03:04;;;;;;;3.40;3.10;;;18.40;54.70;;;;;;4994339;28;20220;-68
2023/05/01 02:05:33;;;;;;;3.38;3.08;;;18.50;54.80;;;;;;4989175;28;20707;-68
2023/05/01 02:08:01;;;;;;;3.05;2.75;;;18.40;54.70;;;;;;4970229;28;20214;-68
2023/05/01 02:10:28;;;;;;;3.00;2.70;;;18.40;54.70;;;;;;4987159;28;20178;-68
2023/05/01 02:12:57;;;;;;;3.10;2.80;;;18.50;54.80;;;;;;4957338;28;20189;-68
2023/05/01 02:15:25;;;;;;;2.97;2.78;;;18.50;54.80;;;;;;4964813;28;20700;-68
2023/05/01 02:17:52;;;;;;;3.25;2.83;;;18.40;54.70;;;;;;4957211;28;20182;-68
2023/05/01 02:20:20;;;;;;;3.50;2.85;;;18.40;54.70;;;;;;4956919;28;20251;-68
2023/05/01 02:22:47;;;;;;;2.80;2.55;;;18.50;54.80;;;;;;4956740;28;20217;-68
2023/05/01 02:25:15;;;;;;;2.80;2.60;;;18.40;54.70;;;;;;4957012;28;20197;-69
2023/05/01 02:27:54;;;;;;;3.22;2.55;;;18.50;54.80;;;;;;4974080;28;20197;-68
2023/05/01 02:30:20;;;;;;;3.47;2.67;;;18.40;54.70;;;;;;4956816;28;20198;-69
2023/05/01 02:32:46;;;;;;;2.92;2.72;;;18.50;54.80;;;;;;4940741;28;20198;-68
2023/05/01 02:35:12;;;;;;;3.13;2.85;;;18.40;54.70;;;;;;4964853;28;20616;-68
2023/05/01 02:37:38;;;;;;;2.97;2.67;;;18.50;54.80;;;;;;4956603;28;20194;-68
2023/05/01 02:40:06;;;;;;;3.03;2.75;;;18.50;54.80;;;;;;4956566;28;20189;-68
2023/05/01 02:42:34;;;;;;;3.63;2.97;;;18.50;54.80;;;;;;4988743;28;20213;-68
2023/05/01 02:45:09;;;;;;;2.92;2.70;;;18.40;54.70;;;;;;4955974;28;20689;-68
2023/05/01 02:47:41;;;;;;;3.00;2.70;;;18.40;54.70;;;;;;4963086;28;20553;-68
2023/05/01 02:50:08;;;;;;;3.00;2.70;;;18.50;54.80;;;;;;4978631;28;20193;-68
2023/05/01 02:52:36;;;;;;;2.45;2.25;;;18.50;54.80;;;;;;4973896;28;20189;-68
2023/05/01 02:55:22;;;;;;;3.17;2.88;;;18.40;54.70;;;;;;4971890;28;20317;-68
2023/05/01 02:57:50;;;;;;;2.85;2.65;;;18.40;54.70;;;;;;4940375;28;20189;-68
2023/05/01 03:00:17;;;;;;;3.05;2.85;;;18.50;54.80;;;;;;4956239;28;20732;-68
2023/05/01 03:02:44;;;;;;;3.08;2.67;;;18.40;54.70;;;;;;4940035;28;20213;-68
2023/05/01 03:05:10;;;;;;;2.95;2.63;;;18.40;54.70;;;;;;4955962;28;20202;-68
2023/05/01 03:07:35;;;;;;;3.05;2.70;;;18.40;54.70;;;;;;4956219;28;20271;-68
2023/05/01 03:10:06;;;;;;;2.70;2.50;;;18.40;54.70;;;;;;4945604;28;20191;-68
2023/05/01 03:12:33;;;;;;;2.92;2.60;;;18.40;54.70;;;;;;4957985;28;20193;-68
2023/05/01 03:14:59;;;;;;;3.25;2.95;;;18.40;54.70;;;;;;4964003;28;20309;-68
2023/05/01 03:17:25;;;;;;;2.75;2.55;;;18.40;54.70;;;;;;4963805;28;20272;-69
2023/05/01 03:19:51;;;;;;;3.17;2.92;;;18.40;54.70;;;;;;4955951;28;20186;-69
2023/05/01 03:22:17;;;;;;;2.88;2.60;;;18.40;54.70;;;;;;4980240;28;20732;-68
2023/05/01 03:24:43;;;;;;;2.67;2.33;;;18.40;54.70;;;;;;4987976;28;20213;-68
2023/05/01 03:27:09;;;;;;;2.55;2.35;;;18.40;54.70;;;;;;4976854;28;20194;-68
2023/05/01 03:29:36;;;;;;;2.70;2.50;;;18.40;54.70;;;;;;4954287;28;20185;-68
2023/05/01 03:32:03;;;;;;;3.03;2.72;;;18.50;54.80;;;;;;4955985;28;20221;-68
2023/05/01 03:34:29;;;;;;;2.70;2.50;;;18.40;54.70;;;;;;4939557;28;20701;-68
2023/05/01 03:36:55;;;;;;;2.70;2.50;;;18.40;54.70;;;;;;4955875;28;20201;-68
2023/05/01 03:39:23;;;;;;;2.75;2.55;;;18.40;54.70;;;;;;4956040;28;20191;-68
2023/05/01 03:42:07;;;;;;;2.78;2.58;;;18.40;54.70;;;;;;4958635;28;20260;-68
2023/05/01 03:44:38;;;;;;;3.45;2.67;;;18.40;54.70;;;;;;4942739;28;20229;-68
2023/05/01 03:47:05;;;;;;;2.25;2.05;;;18.40;54.70;;;;;;4945515;28;20204;-68
2023/05/01 03:49:33;;;;;;;2.78;2.58;;;18.40;54.70;;;;;;4955992;28;20181;-68
2023/05/01 03:51:58;;;;;;;3.00;2.80;;;18.40;54.70;;;;;;4955779;28;20190;-68
2023/05/01 03:54:25;;;;;;;2.47;2.28;;;18.40;54.70;;;;;;4955550;28;20217;-68
2023/05/01 03:57:00;;;;;;;2.80;2.60;;;18.40;54.70;;;;;;4955649;28;20185;-68
2023/05/01 03:59:26;;;;;;;2.90;2.60;;;18.40;54.70;;;;;;4956038;28;20200;-69
2023/05/01 04:01:52;;;;;;;2.70;2.50;;;18.40;54.70;;;;;;4959843;28;20201;-68
2023/05/01 04:04:18;;;;;;;2.40;2.20;;;18.40;54.70;;;;;;4959249;28;20217;-68
2023/05/01 04:06:49;;;;;;;2.80;2.60;;;18.40;54.70;;;;;;4959393;28;20265;-68
2023/05/01 04:09:15;;;;;;;3.58;2.50;;;18.40;54.70;;;;;;4959300;28;20324;-68
2023/05/01 04:11:41;;;;;;;2.72;2.53;;;18.40;54.70;;;;;;4967404;28;20258;-68
2023/05/01 04:14:06;;;;;;;2.45;2.25;;;18.40;54.80;;;;;;4966879;28;20210;-68
2023/05/01 04:16:34;;;;;;;2.63;2.42;;;18.40;54.70;;;;;;4983356;28;20186;-68
2023/05/01 04:19:00;;;;;;;2.95;2.67;;;18.40;54.70;;;;;;4966989;28;20185;-68
2023/05/01 04:21:27;;;;;;;2.70;2.50;;;18.40;54.70;;;;;;4967099;28;20181;-68
2023/05/01 04:23:52;;;;;;;2.90;2.60;;;18.40;54.70;;;;;;4943216;28;20224;-68
2023/05/01 04:26:19;;;;;;;3.00;2.67;;;18.40;54.70;;;;;;4966418;28;20192;-68
2023/05/01 04:28:45;;;;;;;2.78;2.58;;;18.40;54.70;;;;;;4959741;28;20197;-68
2023/05/01 04:31:13;;;;;;;2.90;2.70;;;18.40;54.70;;;;;;4958823;28;20194;-68
2023/05/01 04:33:38;;;;;;;2.78;2.58;;;18.40;54.70;;;;;;4958928;28;20298;-68
2023/05/01 04:36:06;;;;;;;2.53;2.33;;;18.40;54.70;;;;;;4959092;28;20189;-69
2023/05/01 04:38:31;;;;;;;2.85;2.60;;;18.30;54.60;;;;;;4975074;28;20572;-68
2023/05/01 04:40:58;;;;;;;3.25;2.95;;;18.40;54.70;;;;;;4972046;28;20191;-69
2023/05/01 04:43:24;;;;;;;2.72;2.53;;;18.40;54.70;;;;;;4972341;28;20726;-68
2023/05/01 04:45:50;;;;;;;2.95;2.70;;;18.40;54.70;;;;;;4974401;28;20247;-68
2023/05/01 04:48:15;;;;;;;2.60;2.17;;;18.40;54.70;;;;;;4949083;28;20188;-68
2023/05/01 04:50:41;;;;;;;2.58;2.38;;;18.40;54.70;;;;;;4959785;28;20197;-68
2023/05/01 04:53:08;;;;;;;3.10;2.80;;;18.40;54.70;;;;;;4942398;28;20181;-68
2023/05/01 04:55:35;;;;;;;2.75;2.55;;;18.40;54.70;;;;;;4958123;28;20216;-69
2023/05/01 04:58:05;;;;;;;2.60;2.40;;;18.40;54.70;;;;;;4958423;28;20189;-68
2023/05/01 05:00:33;;;;;;;2.92;2.70;;;18.40;54.70;;;;;;4958432;28;20201;-68
2023/05/01 05:03:00;;;;;;;2.85;2.65;;;18.40;54.70;;;;;;4962519;28;20213;-68
2023/05/01 05:05:25;;;;;;;2.42;2.33;;;18.40;54.70;;;;;;4961829;28;20228;-68
2023/05/01 05:07:52;;;;;;;2.88;2.65;;;18.40;54.70;;;;;;4958254;28;20658;-68
2023/05/01 05:10:35;;;;;;;2.65;2.40;;;18.40;54.70;;;;;;4966099;28;20193;-68
2023/05/01 05:13:16;;;;;;;2.60;2.40;;;18.30;54.60;;;;;;4957813;28;20220;-68
2023/05/01 05:15:42;;;;;;;2.75;2.53;;;18.30;54.60;;;;;;4981947;28;20192;-68
2023/05/01 05:18:10;;;;;;;2.67;2.47;;;18.30;54.60;;;;;;4950267;28;20190;-68
2023/05/01 05:20:38;;;;;;;2.60;2.40;;;18.30;54.60;;;;;;4958101;28;20220;-68
2023/05/01 05:23:05;;;;;;;2.35;2.15;;;18.30;54.60;;;;;;4947048;28;20208;-68
2023/05/01 05:25:31;;;;;;;2.72;2.53;;;18.40;54.70;;;;;;4960509;28;20213;-68
2023/05/01 05:27:59;;;;;;;2.70;2.50;;;18.30;54.60;;;;;;4957977;28;20181;-68
2023/05/01 05:30:28;;;;;;;2.75;2.55;;;18.30;54.60;;;;;;4942236;28;20189;-68
2023/05/01 05:32:55;;;;;;;2.65;2.45;;;18.40;54.70;;;;;;4971081;28;20186;-68
2023/05/01 05:35:21;;;;;;;2.47;2.35;;;18.30;54.60;;;;;;4953363;28;20212;-68
2023/05/01 05:37:47;;;;;;;2.88;2.45;;;18.30;54.60;;;;;;4960281;28;20189;-68
2023/05/01 05:40:13;;;;;;;2.42;2.22;;;18.30;54.60;;;;;;4931605;28;20619;-68
2023/05/01 05:42:49;;;;;;;2.63;2.42;;;18.30;54.60;;;;;;4942884;28;20256;-69
2023/05/01 05:45:15;;;;;;;2.63;2.42;;;18.30;54.60;;;;;;4957381;28;20292;-68
2023/05/01 05:47:41;;;;;;;2.67;2.50;;;18.30;54.60;;;;;;4966771;28;20193;-68
2023/05/01 05:50:08;;;;;;;2.60;2.40;;;18.30;54.60;;;;;;4963931;28;20232;-68
2023/05/01 05:52:34;;;;;;;3.30;3.00;;;18.30;54.60;;;;;;4973939;28;20186;-68
2023/05/01 05:55:01;;;;;;;2.90;2.70;;;18.40;54.70;;;;;;4964076;28;20681;-68
2023/05/01 05:57:27;;;;;;;2.53;2.33;;;18.30;54.60;;;;;;4941535;28;20232;-68
2023/05/01 05:59:53;;;;;;;2.65;2.45;;;18.30;54.60;;;;;;4965383;28;20231;-68
2023/05/01 06:02:22;;;;;;;2.70;2.50;;;18.30;54.60;;;;;;4957201;28;20185;-68
2023/05/01 06:04:48;;;;;;;2.75;2.55;;;18.30;54.70;;;;;;4956829;28;20213;-68
2023/05/01 06:07:16;;;;;;;2.83;2.63;;;18.30;54.70;;;;;;4957294;28;20272;-68
2023/05/01 06:09:42;;;;;;;2.80;2.60;;;18.30;54.60;;;;;;4956786;28;20673;-68
2023/05/01 06:12:08;;;;;;;2.70;2.50;;;18.30;54.60;;;;;;4957024;28;20234;-69
2023/05/01 06:14:34;;;;;;;3.03;2.80;;;18.30;54.60;;;;;;4972750;28;20232;-68
2023/05/01 06:17:00;;;;;;;5.32;3.00;;;18.30;54.60;;;;;;4971949;28;20181;-68
2023/05/01 06:19:26;;;;;;;2.60;2.40;;;18.30;54.70;;;;;;4957356;28;20571;-68
2023/05/01 06:22:01;;;;;;;2.88;2.40;;;18.30;54.60;;;;;;4957186;28;20193;-68
2023/05/01 06:24:27;;;;;;;2.75;2.55;;;18.30;54.60;;;;;;4940727;28;20755;-68
2023/05/01 06:26:56;;;;;;;2.70;2.50;;;18.30;54.70;;;;;;4956678;28;20178;-69
2023/05/01 06:29:22;;;;;;;2.70;2.50;;;18.30;54.70;;;;;;4989385;28;20189;-68
2023/05/01 06:31:47;;;;;;;2.63;2.42;;;18.30;54.70;;;;;;4940892;28;20189;-68
2023/05/01 06:34:13;;;;;;;2.55;2.35;;;18.30;54.70;;;;;;4956524;28;20700;-68
2023/05/01 06:36:51;;;;;;;2.67;2.47;;;18.30;54.70;;;;;;4950180;28;20247;-68
2023/05/01 06:39:17;;;;;;;2.80;2.60;;;18.30;54.70;;;;;;4953456;28;20202;-68
2023/05/01 06:41:46;;;;;;;2.60;2.40;;;18.30;54.70;;;;;;4954561;28;20196;-68
2023/05/01 06:44:14;;;;;;;2.63;2.42;;;18.30;54.80;;;;;;4956432;28;20750;-68
2023/05/01 06:46:39;;;;;;;2.75;2.55;;;18.30;54.80;;;;;;4956291;28;20189;-68
2023/05/01 06:49:06;;;;;;;2.40;2.20;;;18.30;54.80;;;;;;4956450;28;20208;-68
2023/05/01 06:51:31;;;;;;;3.05;2.38;;;18.30;54.80;;;;;;4940471;28;20207;-68
2023/05/01 06:53:57;;;;;;;2.75;2.55;;;18.30;54.80;;;;;;4956068;28;20279;-68
2023/05/01 06:56:23;;;;;;;2.67;2.47;;;18.30;54.80;;;;;;4956179;28;20255;-68
2023/05/01 06:58:49;;;;;;;2.63;2.38;;;18.30;54.80;;;;;;4958156;28;20197;-70
2023/05/01 07:01:16;;;;;;;2.42;2.22;;;18.30;54.90;;;;;;4962050;28;20200;-68
2023/05/01 07:03:42;;;;;;;2.63;2.42;;;18.30;54.80;;;;;;4954784;28;20217;-68
2023/05/01 07:06:08;;;;;;;2.70;2.50;;;18.30;54.90;;;;;;4967822;28;20192;-69
2023/05/01 07:08:34;;;;;;;2.67;2.47;;;18.30;54.80;;;;;;4959009;28;20189;-68
2023/05/01 07:11:00;;;;;;;2.50;2.30;;;18.30;54.80;;;;;;4959002;28;20190;-68
2023/05/01 07:13:26;;;;;;;2.55;2.35;;;18.30;54.90;;;;;;4973181;28;20186;-68
2023/05/01 07:15:52;;;;;;;2.45;2.33;;;18.30;54.90;;;;;;4973082;28;20204;-68
2023/05/01 07:18:18;;;;;;;2.47;2.28;;;18.30;54.90;;;;;;4956272;28;20198;-69
2023/05/01 07:20:44;;;;;;;2.65;2.45;;;18.30;54.90;;;;;;4961781;28;20252;-68
2023/05/01 07:23:10;;;;;;;2.58;2.40;;;18.30;54.90;;;;;;4961101;28;20206;-68
2023/05/01 07:25:43;;;;;;;2.47;2.28;;;18.30;54.90;;;;;;4947547;28;20672;-69
2023/05/01 07:28:08;;;;;;;2.92;2.70;;;18.30;54.90;;;;;;4944359;28;20243;-68
2023/05/01 07:30:37;;;;;;;2.75;2.55;;;18.30;55.00;;;;;;4959685;28;20182;-69
2023/05/01 07:33:04;;;;;;;2.42;2.33;;;18.30;54.90;;;;;;4980410;28;20181;-69
2023/05/01 07:35:31;;;;;;;2.60;2.40;;;18.30;54.90;;;;;;4957872;28;20217;-68
2023/05/01 07:37:57;;;;;;;2.70;2.50;;;18.30;55.00;;;;;;4967767;28;20204;-69
2023/05/01 07:40:23;;;;;;;3.10;2.90;;;18.30;55.00;;;;;;4959883;28;20193;-68
2023/05/01 07:42:48;;;;;;;2.90;2.70;;;18.30;55.00;;;;;;4974096;28;20222;-69
2023/05/01 07:45:14;;;;;;;2.90;2.70;;;18.30;55.00;;;;;;4959760;28;20252;-68
2023/05/01 07:47:40;;;;;;;3.05;2.85;;;18.30;55.60;;;;;;4984917;28;20189;-68
2023/05/01 07:50:10;;;;;;;3.58;3.28;;;18.30;55.10;;;;;;4959878;28;20590;-68
2023/05/01 07:52:36;;;;;;;3.60;3.30;;;18.30;55.00;;;;;;4976883;28;20190;-68
2023/05/01 07:55:03;;;;;;;3.60;3.30;;;18.30;55.10;;;;;;4968667;28;20648;-68
2023/05/01 07:57:32;;;;;;;3.45;3.15;;;18.30;55.00;;;;;;4966629;28;20207;-69
2023/05/01 07:59:58;;;;;;;3.17;2.90;;;18.30;55.10;;;;;;4968279;28;20194;-69
2023/05/01 08:02:24;;;;;;;2.78;2.58;;;18.30;55.10;;;;;;4949560;28;20196;-69
2023/05/01 08:04:49;;;;;;;3.22;3.03;;;18.30;55.10;;;;;;4962251;28;20264;-68
2023/05/01 08:07:15;;;;;;;3.35;3.05;;;18.30;55.10;;;;;;4949742;28;20193;-68
2023/05/01 08:09:41;;;;;;;3.00;2.80;;;18.40;55.10;;;;;;4976406;28;20193;-68
2023/05/01 08:12:07;;;;;;;3.28;3.08;;;18.40;55.00;;;;;;4959354;28;20201;-68
2023/05/01 08:14:33;;;;;;;2.97;2.78;;;18.40;55.00;;;;;;4942902;28;20209;-69
2023/05/01 08:16:58;;;;;;;3.38;3.08;;;18.40;55.00;;;;;;4977429;28;20194;-68
2023/05/01 08:19:26;;;;;;;3.45;3.15;;;18.50;55.10;;;;;;4959554;28;20570;-69
2023/05/01 08:21:52;;;;;;;3.00;2.80;;;18.40;55.00;;;;;;4959003;28;20225;-68
2023/05/01 08:24:20;;;;;;;2.97;2.78;;;18.50;55.20;;;;;;4962500;28;20251;-69
2023/05/01 08:26:46;;;;;;;2.90;2.70;;;18.50;55.20;;;;;;4974768;28;20579;-68
2023/05/01 08:29:11;;;;;;;3.00;2.80;;;18.40;55.20;;;;;;4963362;28;20181;-69
2023/05/01 08:31:38;;;;;;;3.20;2.92;;;18.40;55.10;;;;;;4986629;28;20236;-68
2023/05/01 08:34:05;;;;;;;2.83;2.63;;;18.50;55.20;;;;;;4958529;28;20205;-68
2023/05/01 08:36:32;;;;;;;2.97;2.78;;;18.40;55.20;;;;;;4943187;28;20196;-67
2023/05/01 08:38:58;;;;;;;2.92;2.72;;;18.50;55.30;;;;;;4975794;28;20205;-68
2023/05/01 08:41:26;;;;;;;3.35;2.90;;;18.50;55.20;;;;;;4988846;28;20189;-69
2023/05/01 08:43:55;;;;;;;3.28;2.97;;;18.50;55.30;;;;;;4960054;28;20237;-69
2023/05/01 08:46:52;;;;;;;2.97;2.78;;;18.50;55.20;;;;;;4942358;28;20274;-69
2023/05/01 08:49:20;;;;;;;2.83;2.55;;;18.50;55.30;;;;;;4935131;28;20204;-68
2023/05/01 08:51:47;;;;;;;3.17;2.97;;;18.50;55.30;;;;;;4981841;28;20188;-69
2023/05/01 08:54:16;;;;;;;3.33;3.00;;;18.50;55.30;;;;;;4951099;28;20633;-69
2023/05/01 08:56:46;;;;;;;3.45;3.15;;;18.50;55.30;;;;;;4958504;28;20193;-69
2023/05/01 08:59:13;;;;;;;3.28;2.90;;;18.50;55.30;;;;;;4958662;28;20281;-68
2023/05/01 09:01:44;;;;;;;3.20;2.90;;;18.50;55.30;;;;;;4961635;28;20202;-68
2023/05/01 09:04:10;;;;;;;3.00;2.80;;;18.50;55.40;;;;;;4961556;28;20228;-68
2023/05/01 09:06:36;;;;;;;3.10;2.90;;;18.50;55.40;;;;;;4958315;28;20191;-69
2023/05/01 09:09:02;;;;;;;3.28;2.97;;;18.50;55.40;;;;;;4960807;28;20188;-68
2023/05/01 09:11:29;;;;;;;3.00;2.80;;;18.50;55.40;;;;;;4977792;28;20188;-69
2023/05/01 09:13:56;;;;;;;3.03;2.72;;;18.50;55.40;;;;;;4943278;28;20209;-69
2023/05/01 09:16:22;;;;;;;2.70;2.50;;;18.50;55.60;;;;;;4973970;28;20193;-69
2023/05/01 09:18:48;;;;;;;2.75;2.55;;;18.50;55.50;;;;;;4958174;28;20217;-69
2023/05/01 09:21:14;;;;;;;3.13;2.92;;;18.50;55.50;;;;;;4962145;28;20181;-69
2023/05/01 09:23:40;;;;;;;3.15;2.95;;;18.50;55.50;;;;;;4961313;28;20213;-68
2023/05/01 09:26:09;;;;;;;3.33;3.13;;;18.60;55.60;;;;;;4965730;28;20232;-69
2023/05/01 09:28:46;;;;;;;3.13;2.88;;;18.50;55.40;;;;;;4975136;28;20284;-69
2023/05/01 09:31:26;;;;;;;3.10;2.80;;;18.60;55.60;;;;;;4983114;28;20671;-69
2023/05/01 09:33:57;;;;;;;3.42;3.17;;;18.50;55.50;;;;;;4982749;28;20217;-69
2023/05/01 09:36:30;;;;;;;3.25;2.95;;;18.60;55.50;;;;;;4957698;28;20739;-70
2023/05/01 09:38:58;;;;;;;3.50;3.20;;;18.60;55.50;;;;;;4976550;28;20193;-70
2023/05/01 09:41:25;;;;;;;3.00;2.75;;;18.60;55.60;;;;;;4962328;28;20192;-69
2023/05/01 09:43:53;;;;;;;3.17;2.88;;;18.60;55.50;;;;;;4966590;28;20216;-69
2023/05/01 09:46:21;;;;;;;3.13;2.83;;;18.60;55.60;;;;;;4964142;28;20276;-69
2023/05/01 09:48:59;;;;;;;3.60;3.22;;;18.60;55.60;;;;;;4957935;28;20293;-70
2023/05/01 09:51:27;;;;;;;3.30;3.00;;;18.60;55.70;;;;;;4957640;28;20194;-69
2023/05/01 09:54:18;;;;;;;3.47;3.03;;;18.70;56.10;;;;;;4957182;28;20245;-69
2023/05/01 09:56:48;;;;;;;3.20;2.90;;;18.70;56.10;;;;;;4956680;28;20201;-69
2023/05/01 09:59:19;;;;;;;3.13;2.92;;;18.60;55.90;;;;;;4972207;28;20189;-69
2023/05/01 10:01:49;;;;;;;3.10;2.88;;;18.70;56.20;;;;;;4958062;28;20189;-69
2023/05/01 10:04:15;;;;;;;4.55;3.10;;;18.60;55.90;;;;;;4954803;28;20221;-68
2023/05/01 10:06:41;;;;;;;4.90;3.28;;;18.70;56.20;;;;;;4957455;28;20181;-68
2023/05/01 10:09:15;;;;;;;3.20;2.90;;;18.70;56.20;;;;;;4956931;28;20260;-69
2023/05/01 10:11:53;;;;;;;3.10;2.78;;;18.70;56.10;;;;;;4990477;28;20220;-70
2023/05/01 10:14:19;;;;;;;5.60;3.10;;;18.60;56.10;;;;;;4986731;28;20782;-69
2023/05/01 10:16:45;;;;;;;5.55;2.95;;;18.70;56.40;;;;;;4993486;28;20219;-69
2023/05/01 10:19:12;;;;;;;4.03;2.85;;;18.70;56.30;;;;;;4967806;28;20220;-70
2023/05/01 10:21:38;;;;;;;3.13;2.83;;;18.70;56.10;;;;;;4975643;28;20204;-69
2023/05/01 10:24:05;;;;;;;4.05;2.75;;;18.70;56.10;;;;;;4966748;28;20225;-68
2023/05/01 10:26:35;;;;;;;2.90;2.63;;;18.70;56.10;;;;;;4964911;28;20185;-69
2023/05/01 10:29:02;;;;;;;3.42;2.70;;;18.60;56.20;;;;;;4980323;28;20196;-68
2023/05/01 10:31:31;;;;;;;6.38;3.03;;;18.70;56.50;;;;;;4957059;28;20272;-69
2023/05/01 10:34:01;;;;;;;9.32;3.65;;;18.70;56.50;;;;;;4956695;28;20222;-69
2023/05/01 10:36:40;;;;;;;10.70;3.17;;;18.70;57.10;;;;;;4956705;28;20232;-69
2023/05/01 10:39:33;;;;;;;4.85;3.50;;;18.70;57.70;;;;;;4956653;28;20220;-69
2023/05/01 10:42:02;;;;;;;7.20;2.92;;;18.70;58.20;;;;;;4971022;28;20202;-70
2023/05/01 10:44:28;;;;;;;9.43;4.05;;;18.80;58.70;;;;;;4956194;28;20217;-69
2023/05/01 10:46:54;;;;;;;6.85;3.38;;;18.80;58.80;;;;;;4956389;28;20248;-69
2023/05/01 10:49:20;;;;;;;6.43;3.20;;;18.80;58.90;;;;;;4956324;28;20204;-69
2023/05/01 10:51:57;;;;;;;7.05;3.10;;;18.80;59.00;;;;;;4973738;28;20181;-69
2023/05/01 10:54:31;;;;;;;8.30;3.30;;;18.90;59.20;;;;;;4948336;28;20224;-69
2023/05/01 10:57:01;;;;;;;9.85;3.58;;;18.90;59.20;;;;;;4956270;28;20683;-69
2023/05/01 11:00:00;;;;;;;10.48;3.58;;;18.90;59.30;;;;;;4956444;28;20259;-69
2023/05/01 11:02:26;;;;;;;6.40;3.25;;;18.90;59.30;;;;;;4978467;28;20192;-70
2023/05/01 11:04:54;;;;;;;4.82;2.95;;;18.90;59.30;;;;;;4966567;28;20224;-69
2023/05/01 11:07:21;;;;;;;4.78;3.00;;;18.90;59.30;;;;;;4956337;28;20217;-70
2023/05/01 11:09:57;;;;;;;5.60;3.15;;;18.90;59.20;;;;;;4955343;28;20199;-69
2023/05/01 11:12:45;;;;;;;7.60;3.67;;;18.90;59.20;;;;;;4956116;28;20196;-70
2023/05/01 11:15:26;;;;;;;6.72;3.28;;;18.90;59.20;;;;;;4988358;28;20209;-70
2023/05/01 11:17:52;;;;;;;4.95;3.13;;;18.90;59.20;;;;;;4955984;28;20240;-69
2023/05/01 11:20:24;;;;;;;5.03;2.90;;;18.90;59.20;;;;;;4973283;28;20189;-69
2023/05/01 11:22:52;;;;;;;8.75;3.63;;;18.90;59.30;;;;;;4972318;28;20197;-69
2023/05/01 11:25:21;;;;;;;7.50;3.35;;;18.90;59.20;;;;;;4975402;28;20206;-70
2023/05/01 11:27:51;;;;;;;6.07;2.88;;;18.90;59.30;;;;;;4952641;28;20202;-69
2023/05/01 11:30:17;;;;;;;6.05;3.03;;;18.90;59.40;;;;;;4964280;28;20218;-70
2023/05/01 11:32:45;;;;;;;7.00;3.45;;;18.90;59.40;;;;;;4972300;28;20264;-69
2023/05/01 11:35:18;;;;;;;8.55;3.42;;;18.90;59.40;;;;;;4947560;28;20210;-70
2023/05/01 11:37:45;;;;;;;3.75;2.95;;;18.90;59.50;;;;;;4971916;28;20196;-69
2023/05/01 11:40:28;;;;;;;8.15;3.42;;;18.90;59.10;;;;;;4973027;28;20328;-69
2023/05/01 11:43:01;;;;;;;6.70;3.17;;;18.80;58.80;;;;;;4971951;28;20196;-69
2023/05/01 11:45:27;;;;;;;3.83;3.08;;;18.80;58.80;;;;;;4963485;28;20209;-70
2023/05/01 11:47:53;;;;;;;3.20;2.90;;;18.80;58.80;;;;;;4955523;28;20684;-70
2023/05/01 11:50:20;;;;;;;3.30;3.00;;;18.80;58.80;;;;;;4955640;28;20205;-69
2023/05/01 11:52:53;;;;;;;3.22;2.60;;;18.80;58.80;;;;;;4955710;28;20272;-69
2023/05/01 11:55:31;;;;;;;4.97;3.20;;;18.80;58.70;;;;;;4955297;28;20303;-69
2023/05/01 11:57:57;;;;;;;5.13;3.20;;;18.80;59.20;;;;;;4972933;28;20188;-70
2023/05/01 12:00:36;;;;;;;3.83;3.15;;;18.70;58.40;;;;;;4955521;28;20261;-70
2023/05/01 12:03:09;;;;;;;4.90;3.38;;;18.70;58.50;;;;;;4955655;28;20300;-69
2023/05/01 12:05:41;;;;;;;5.70;3.38;;;18.70;58.40;;;;;;4972802;28;20185;-69
2023/05/01 12:08:19;;;;;;;5.07;3.25;;;18.70;58.40;;;;;;4955624;28;20198;-70
2023/05/01 12:10:50;;;;;;;5.40;3.22;;;18.70;58.30;;;;;;4939804;28;20738;-69
2023/05/01 12:13:16;;;;;;;3.90;2.78;;;18.70;58.30;;;;;;4955552;28;20190;-70
2023/05/01 12:15:47;;;;;;;6.38;3.42;;;18.70;58.20;;;;;;4955360;28;20213;-70
2023/05/01 12:18:15;;;;;;;4.25;3.40;;;18.80;58.50;;;;;;4955533;28;20252;-70
2023/05/01 12:20:50;;;;;;;5.85;3.45;;;18.80;58.30;;;;;;4956245;28;20212;-69
2023/05/01 12:23:19;;;;;;;5.60;2.92;;;18.70;58.30;;;;;;4968040;28;20217;-68
2023/05/01 12:25:45;;;;;;;6.18;2.83;;;18.70;58.10;;;;;;4959056;28;20198;-69
2023/05/01 12:28:18;;;;;;;6.55;3.35;;;18.70;58.20;;;;;;4958655;28;20220;-69
2023/05/01 12:30:46;;;;;;;6.05;3.20;;;18.70;58.40;;;;;;4975030;28;20281;-69
2023/05/01 12:33:14;;;;;;;4.72;3.08;;;18.70;58.30;;;;;;4978480;28;20196;-69
2023/05/01 12:35:44;;;;;;;7.00;3.50;;;18.80;58.60;;;;;;4942987;28;20190;-69
2023/05/01 12:38:22;;;;;;;9.00;3.50;;;18.80;58.80;;;;;;4958951;28;20292;-69
2023/05/01 12:40:58;;;;;;;3.88;3.45;;;18.90;59.10;;;;;;4970754;28;20228;-69
2023/05/01 12:43:33;;;;;;;8.65;3.30;;;18.90;59.30;;;;;;4986874;28;20216;-68
2023/05/01 12:46:00;;;;;;;6.75;2.95;;;18.90;59.50;;;;;;4966711;28;20193;-69
2023/05/01 12:48:26;;;;;;;4.97;2.95;;;18.90;59.70;;;;;;4975885;28;20188;-69
2023/05/01 12:50:53;;;;;;;5.10;3.25;;;18.90;59.70;;;;;;4958432;28;20181;-69
2023/05/01 12:53:26;;;;;;;4.72;2.80;;;18.90;59.80;;;;;;4966284;28;20204;-69
2023/05/01 12:55:57;;;;;;;7.60;2.90;;;18.90;60.00;;;;;;4958291;28;20200;-69
2023/05/01 12:58:36;;;;;;;5.00;3.28;;;18.90;60.20;;;;;;4953031;28;20639;-69
2023/05/01 13:01:03;;;;;;;3.30;2.83;;;18.90;59.80;;;;;;4983555;28;20656;-69